createdAt,value
2018-05-07T00:02:16.424Z,25.50
2018-05-07T00:04:42.246Z,15.87
2018-05-07T00:07:08.049Z,32.93
2018-05-07T00:09:34.030Z,61.83
2018-05-07T00:11:59.665Z,33.23
2018-05-07T00:14:25.472Z,21.43
2018-05-07T00:16:51.265Z,20.47
2018-05-07T00:19:17.045Z,23.90
2018-05-07T00:21:42.851Z,22.87
2018-05-07T00:24:08.624Z,16.03
2018-05-07T00:26:34.430Z,11.80
2018-05-07T00:29:00.202Z,13.87
2018-05-07T00:31:26.000Z,12.27
2018-05-07T00:33:51.773Z,10.43
2018-05-07T00:36:17.593Z,7.27
2018-05-07T00:38:43.393Z,15.53
2018-05-07T00:41:09.173Z,11.13
2018-05-07T00:43:35.001Z,11.10
2018-05-07T00:46:00.937Z,10.80
2018-05-07T00:48:26.708Z,12.40
2018-05-07T00:50:52.521Z,12.47
2018-05-07T00:53:18.389Z,10.40
2018-05-07T00:55:44.173Z,11.03
2018-05-07T00:58:09.955Z,9.97
2018-05-07T01:00:35.726Z,14.00
2018-05-07T01:03:08.532Z,34.63
2018-05-07T01:05:34.325Z,17.07
2018-05-07T01:08:00.138Z,10.23
2018-05-07T01:10:25.909Z,17.57
2018-05-07T01:12:51.726Z,12.77
2018-05-07T01:15:17.683Z,10.57
2018-05-07T01:17:43.468Z,29.43
2018-05-07T01:20:09.246Z,17.70
2018-05-07T01:22:35.125Z,16.93
2018-05-07T01:25:00.921Z,15.60
2018-05-07T01:27:26.702Z,19.87
2018-05-07T01:29:52.505Z,52.33
2018-05-07T01:32:18.281Z,55.93
2018-05-07T01:34:44.065Z,54.73
2018-05-07T01:37:09.840Z,31.83
2018-05-07T01:39:35.647Z,31.80
2018-05-07T01:42:01.445Z,23.27
2018-05-07T01:44:27.225Z,17.83
2018-05-07T01:46:53.033Z,23.37
2018-05-07T01:49:18.824Z,19.07
2018-05-07T01:51:44.621Z,15.07
2018-05-07T01:54:10.408Z,12.83
2018-05-07T01:56:36.200Z,10.23
2018-05-07T01:59:01.996Z,10.23
2018-05-07T02:01:27.766Z,10.23
2018-05-07T02:04:00.617Z,9.33
2018-05-07T02:06:26.414Z,13.87
2018-05-07T02:08:52.199Z,8.83
2018-05-07T02:11:17.981Z,9.70
2018-05-07T02:13:43.796Z,12.73
2018-05-07T02:16:09.625Z,22.50
2018-05-07T02:18:35.411Z,16.30
2018-05-07T02:21:01.540Z,38.20
2018-05-07T02:23:27.316Z,25.40
2018-05-07T02:25:53.108Z,23.30
2018-05-07T02:28:18.974Z,16.13
2018-05-07T02:30:44.731Z,13.47
2018-05-07T02:33:10.528Z,7.40
2018-05-07T02:35:36.745Z,8.10
2018-05-07T02:38:03.232Z,5.97
2018-05-07T02:40:29.034Z,7.50
2018-05-07T02:42:55.838Z,4.67
2018-05-07T02:45:21.633Z,8.80
2018-05-07T02:47:47.423Z,5.17
2018-05-07T02:50:13.222Z,10.07
2018-05-07T02:52:39.022Z,9.33
2018-05-07T02:55:04.841Z,5.40
2018-05-07T02:57:30.617Z,5.67
2018-05-07T02:59:56.437Z,6.00
2018-05-07T03:02:22.205Z,13.67
2018-05-07T03:04:47.999Z,4.87
2018-05-07T03:07:13.798Z,4.90
2018-05-07T03:09:39.586Z,24.20
2018-05-07T03:12:05.386Z,24.80
2018-05-07T03:14:31.178Z,5.60
2018-05-07T03:16:56.989Z,66.40
2018-05-07T03:19:22.777Z,41.00
2018-05-07T03:21:48.561Z,65.93
2018-05-07T03:24:14.363Z,10.03
2018-05-07T03:26:40.153Z,30.27
2018-05-07T03:29:05.922Z,17.80
2018-05-07T03:31:31.941Z,31.73
2018-05-07T03:33:57.736Z,14.90
2018-05-07T03:36:30.701Z,60.43
2018-05-07T03:38:56.564Z,19.40
2018-05-07T03:41:22.356Z,7.47
2018-05-07T03:43:48.211Z,9.47
2018-05-07T03:46:14.054Z,39.13
2018-05-07T03:48:39.896Z,117.10
2018-05-07T03:51:05.656Z,126.27
2018-05-07T03:53:31.443Z,55.73
2018-05-07T03:55:57.225Z,86.73
2018-05-07T03:58:23.007Z,60.63
2018-05-07T04:00:49.560Z,14.53
2018-05-07T04:03:17.213Z,29.03
2018-05-07T04:05:44.636Z,60.90
2018-05-07T04:08:11.474Z,85.77
2018-05-07T04:10:37.353Z,52.70
2018-05-07T04:13:03.145Z,21.77
2018-05-07T04:15:28.978Z,10.00
2018-05-07T04:18:07.333Z,29.97
2018-05-07T04:20:45.483Z,58.20
2018-05-07T04:23:23.728Z,51.93
2018-05-07T04:25:49.521Z,71.30
2018-05-07T04:28:15.300Z,37.20
2018-05-07T04:30:41.113Z,20.40
2018-05-07T04:33:06.891Z,57.97
2018-05-07T04:35:32.666Z,66.47
2018-05-07T04:37:58.454Z,29.37
2018-05-07T04:40:24.258Z,22.13
2018-05-07T04:42:50.028Z,39.10
2018-05-07T04:45:15.801Z,47.10
2018-05-07T04:47:41.592Z,37.87
2018-05-07T04:50:07.360Z,41.37
2018-05-07T04:52:33.155Z,17.40
2018-05-07T04:54:58.948Z,7.30
2018-05-07T04:57:24.740Z,8.53
2018-05-07T04:59:50.529Z,7.43
2018-05-07T05:02:16.329Z,11.77
2018-05-07T05:04:42.185Z,14.53
2018-05-07T05:07:08.004Z,13.03
2018-05-07T05:09:33.782Z,10.80
2018-05-07T05:11:59.598Z,19.47
2018-05-07T05:14:25.369Z,9.50
2018-05-07T05:16:51.059Z,11.97
2018-05-07T05:19:17.228Z,6.27
2018-05-07T05:21:42.972Z,7.00
2018-05-07T05:24:08.745Z,10.60
2018-05-07T05:26:34.533Z,7.70
2018-05-07T05:29:00.300Z,6.90
2018-05-07T05:31:26.127Z,5.90
2018-05-07T05:33:51.909Z,8.43
2018-05-07T05:36:17.701Z,10.40
2018-05-07T05:38:43.476Z,5.63
2018-05-07T05:41:09.264Z,6.33
2018-05-07T05:43:35.073Z,10.83
2018-05-07T05:46:00.856Z,8.00
2018-05-07T05:48:26.641Z,9.40
2018-05-07T05:50:52.420Z,5.17
2018-05-07T05:53:18.222Z,10.93
2018-05-07T05:55:44.000Z,6.83
2018-05-07T05:58:09.806Z,5.97
2018-05-07T06:00:35.596Z,7.70
2018-05-07T06:03:01.394Z,7.40
2018-05-07T06:05:27.164Z,9.03
2018-05-07T06:07:52.953Z,9.37
2018-05-07T06:10:18.758Z,7.43
2018-05-07T06:12:44.542Z,7.00
2018-05-07T06:15:10.315Z,8.93
2018-05-07T06:17:36.291Z,9.37
2018-05-07T06:20:02.174Z,8.00
2018-05-07T06:22:27.897Z,6.50
2018-05-07T06:24:53.698Z,6.70
2018-05-07T06:27:19.558Z,9.60
2018-05-07T06:29:45.286Z,8.60
2018-05-07T06:32:11.070Z,11.83
2018-05-07T06:34:36.857Z,6.13
2018-05-07T06:37:02.684Z,8.57
2018-05-07T06:39:28.470Z,4.67
2018-05-07T06:41:54.266Z,5.33
2018-05-07T06:44:20.068Z,6.93
2018-05-07T06:46:45.847Z,5.20
2018-05-07T06:49:11.643Z,4.30
2018-05-07T06:51:37.458Z,12.00
2018-05-07T06:54:03.252Z,4.87
2018-05-07T06:56:29.047Z,4.90
2018-05-07T06:58:54.836Z,7.17
2018-05-07T07:01:20.629Z,6.43
2018-05-07T07:03:46.677Z,9.00
2018-05-07T07:06:12.578Z,5.13
2018-05-07T07:08:38.413Z,8.17
2018-05-07T07:11:04.176Z,6.80
2018-05-07T07:13:29.981Z,7.00
2018-05-07T07:15:55.759Z,6.90
2018-05-07T07:18:21.538Z,3.93
2018-05-07T07:20:47.330Z,6.80
2018-05-07T07:23:13.125Z,9.30
2018-05-07T07:25:38.942Z,5.30
2018-05-07T07:28:04.779Z,20.73
2018-05-07T07:30:30.522Z,6.13
2018-05-07T07:32:56.354Z,4.47
2018-05-07T07:35:22.138Z,8.70
2018-05-07T07:37:47.951Z,7.30
2018-05-07T07:40:13.740Z,7.07
2018-05-07T07:42:39.537Z,4.10
2018-05-07T07:45:05.987Z,5.03
2018-05-07T07:47:31.764Z,4.97
2018-05-07T07:49:57.548Z,2.63
2018-05-07T07:52:23.436Z,4.53
2018-05-07T07:54:49.149Z,6.17
2018-05-07T07:57:14.938Z,3.10
2018-05-07T07:59:40.753Z,5.30
2018-05-07T08:02:06.537Z,5.53
2018-05-07T08:04:32.321Z,4.97
2018-05-07T08:06:58.114Z,3.63
2018-05-07T08:09:23.917Z,4.27
2018-05-07T08:11:49.700Z,3.87
2018-05-07T08:14:15.490Z,4.53
2018-05-07T08:16:41.291Z,2.87
2018-05-07T08:19:07.097Z,2.47
2018-05-07T08:21:32.890Z,2.80
2018-05-07T08:23:58.677Z,2.57
2018-05-07T08:26:24.466Z,6.13
2018-05-07T08:28:50.243Z,4.00
2018-05-07T08:31:16.027Z,5.63
2018-05-07T08:33:41.828Z,2.37
2018-05-07T08:36:07.623Z,3.00
2018-05-07T08:38:33.442Z,2.40
2018-05-07T08:40:59.208Z,3.40
2018-05-07T08:43:24.988Z,2.20
2018-05-07T08:45:50.816Z,2.30
2018-05-07T08:48:16.590Z,2.87
2018-05-07T08:50:42.407Z,2.63
2018-05-07T08:53:08.260Z,3.53
2018-05-07T08:55:33.990Z,5.97
2018-05-07T08:57:59.804Z,4.57
2018-05-07T09:00:25.577Z,2.73
2018-05-07T09:02:51.355Z,4.30
2018-05-07T09:05:17.149Z,6.60
2018-05-07T09:07:42.929Z,2.47
2018-05-07T09:10:08.749Z,5.80
2018-05-07T09:12:34.540Z,5.83
2018-05-07T09:15:00.347Z,12.87
2018-05-07T09:17:26.166Z,13.53
2018-05-07T09:19:51.956Z,62.67
2018-05-07T09:22:17.753Z,5.87
2018-05-07T09:24:43.601Z,6.63
2018-05-07T09:27:09.461Z,12.83
2018-05-07T09:29:35.238Z,13.50
2018-05-07T09:32:01.038Z,11.80
2018-05-07T09:34:26.824Z,4.47
2018-05-07T09:36:52.593Z,8.83
2018-05-07T09:39:18.379Z,5.90
2018-05-07T09:41:44.173Z,5.40
2018-05-07T09:44:09.976Z,4.13
2018-05-07T09:46:35.768Z,2.83
2018-05-07T09:49:01.568Z,7.03
2018-05-07T09:51:27.349Z,7.70
2018-05-07T09:53:53.129Z,14.27
2018-05-07T09:56:18.909Z,9.97
2018-05-07T09:58:56.072Z,21.70
2018-05-07T10:01:21.853Z,24.97
2018-05-07T10:03:47.629Z,5.93
2018-05-07T10:06:13.441Z,4.00
2018-05-07T10:08:39.232Z,5.97
2018-05-07T10:11:05.026Z,4.90
2018-05-07T10:13:30.825Z,7.23
2018-05-07T10:15:56.618Z,2.73
2018-05-07T10:18:22.392Z,3.00
2018-05-07T10:20:48.177Z,7.70
2018-05-07T10:23:14.289Z,3.57
2018-05-07T10:25:40.099Z,4.70
2018-05-07T10:28:05.892Z,5.43
2018-05-07T10:30:31.663Z,2.03
2018-05-07T10:32:57.448Z,3.73
2018-05-07T10:35:23.235Z,3.43
2018-05-07T10:37:49.015Z,3.30
2018-05-07T10:40:15.018Z,3.17
2018-05-07T10:42:40.850Z,9.97
2018-05-07T10:45:06.595Z,8.47
2018-05-07T10:47:32.404Z,2.13
2018-05-07T10:49:58.197Z,4.40
2018-05-07T10:52:23.983Z,6.03
2018-05-07T10:54:49.765Z,4.47
2018-05-07T10:57:15.553Z,1.83
2018-05-07T10:59:41.325Z,5.97
2018-05-07T11:02:07.376Z,3.77
2018-05-07T11:04:33.181Z,4.63
2018-05-07T11:06:58.955Z,4.30
2018-05-07T11:09:24.781Z,3.03
2018-05-07T11:11:50.604Z,2.87
2018-05-07T11:14:16.387Z,2.57
2018-05-07T11:16:42.175Z,2.70
2018-05-07T11:19:07.969Z,4.13
2018-05-07T11:21:33.757Z,2.03
2018-05-07T11:23:59.548Z,1.63
2018-05-07T11:26:25.317Z,2.50
2018-05-07T11:28:51.103Z,5.10
2018-05-07T11:31:16.898Z,2.80
2018-05-07T11:33:42.676Z,3.70
2018-05-07T11:36:08.497Z,3.13
2018-05-07T11:38:34.278Z,3.20
2018-05-07T11:41:00.073Z,2.10
2018-05-07T11:43:25.852Z,1.77
2018-05-07T11:45:51.636Z,2.57
2018-05-07T11:48:17.456Z,5.73
2018-05-07T11:50:43.248Z,3.17
2018-05-07T11:53:09.136Z,4.20
2018-05-07T11:55:35.124Z,5.73
2018-05-07T11:58:00.927Z,11.70
2018-05-07T12:00:26.741Z,87.20
2018-05-07T12:02:52.534Z,7.43
2018-05-07T12:05:18.313Z,3.73
2018-05-07T12:07:44.082Z,6.43
2018-05-07T12:10:09.856Z,8.93
2018-05-07T12:12:35.633Z,8.80
2018-05-07T12:15:01.626Z,4.83
2018-05-07T12:17:27.409Z,4.60
2018-05-07T12:19:53.193Z,7.20
2018-05-07T12:22:18.985Z,8.93
2018-05-07T12:24:44.780Z,2.87
2018-05-07T12:27:10.563Z,6.23
2018-05-07T12:29:36.360Z,5.27
2018-05-07T12:32:02.137Z,3.83
2018-05-07T12:34:27.924Z,3.30
2018-05-07T12:36:53.713Z,4.60
2018-05-07T12:39:19.482Z,4.43
2018-05-07T12:41:45.259Z,5.70
2018-05-07T12:44:11.050Z,8.77
2018-05-07T12:46:36.981Z,9.03
2018-05-07T12:49:02.756Z,8.27
2018-05-07T12:51:28.720Z,4.73
2018-05-07T12:53:54.520Z,5.20
2018-05-07T12:56:20.317Z,8.50
2018-05-07T12:58:46.158Z,9.50
2018-05-07T13:01:11.961Z,13.30
2018-05-07T13:03:37.744Z,7.27
2018-05-07T13:06:03.545Z,5.30
2018-05-07T13:08:29.348Z,4.00
2018-05-07T13:10:55.148Z,3.40
2018-05-07T13:13:20.952Z,8.37
2018-05-07T13:15:46.745Z,6.93
2018-05-07T13:18:12.533Z,6.20
2018-05-07T13:20:38.505Z,5.07
2018-05-07T13:23:04.294Z,6.00
2018-05-07T13:25:30.088Z,4.20
2018-05-07T13:27:55.892Z,6.13
2018-05-07T13:30:21.780Z,4.20
2018-05-07T13:32:47.570Z,3.00
2018-05-07T13:35:13.352Z,7.87
2018-05-07T13:37:39.342Z,7.07
2018-05-07T13:40:05.140Z,4.70
2018-05-07T13:42:30.927Z,3.37
2018-05-07T13:44:56.729Z,6.90
2018-05-07T13:47:22.502Z,10.27
2018-05-07T13:49:48.326Z,16.50
2018-05-07T13:52:14.118Z,5.80
2018-05-07T13:54:39.928Z,3.30
2018-05-07T13:57:05.724Z,12.00
2018-05-07T13:59:31.498Z,4.07
2018-05-07T14:01:57.314Z,4.77
2018-05-07T14:04:23.126Z,4.60
2018-05-07T14:06:48.898Z,5.30
2018-05-07T14:09:14.693Z,3.07
2018-05-07T14:11:40.482Z,6.70
2018-05-07T14:14:06.272Z,5.30
2018-05-07T14:16:32.066Z,5.87
2018-05-07T14:18:57.857Z,3.50
2018-05-07T14:21:23.669Z,10.43
2018-05-07T14:23:49.456Z,5.10
2018-05-07T14:26:15.252Z,4.10
2018-05-07T14:28:41.049Z,3.03
2018-05-07T14:31:06.824Z,3.50
2018-05-07T14:33:32.693Z,2.93
2018-05-07T14:35:58.468Z,3.63
2018-05-07T14:38:24.256Z,4.37
2018-05-07T14:40:50.033Z,2.73
2018-05-07T14:43:15.853Z,4.33
2018-05-07T14:45:41.736Z,3.03
2018-05-07T14:48:07.455Z,4.10
2018-05-07T14:50:33.249Z,8.90
2018-05-07T14:52:59.065Z,7.80
2018-05-07T14:55:24.856Z,4.73
2018-05-07T14:57:50.648Z,5.20
2018-05-07T15:00:16.453Z,14.67
2018-05-07T15:02:42.233Z,7.57
2018-05-07T15:05:08.039Z,18.90
2018-05-07T15:07:33.848Z,14.40
2018-05-07T15:09:59.633Z,6.30
2018-05-07T15:12:25.426Z,7.03
2018-05-07T15:14:51.233Z,7.07
2018-05-07T15:17:17.013Z,11.90
2018-05-07T15:19:43.075Z,5.13
2018-05-07T15:22:08.877Z,4.50
2018-05-07T15:24:44.929Z,4.50
2018-05-07T15:27:11.000Z,5.37
2018-05-07T15:29:36.806Z,6.73
2018-05-07T15:32:02.673Z,10.23
2018-05-07T15:34:28.540Z,5.83
2018-05-07T15:36:54.261Z,5.27
2018-05-07T15:39:20.063Z,6.03
2018-05-07T15:41:45.848Z,5.40
2018-05-07T15:44:11.647Z,4.20
2018-05-07T15:46:37.445Z,5.10
2018-05-07T15:49:03.246Z,5.40
2018-05-07T15:51:29.042Z,8.90
2018-05-07T15:53:54.935Z,10.20
2018-05-07T15:56:20.653Z,8.63
2018-05-07T15:58:46.455Z,3.80
2018-05-07T16:01:12.248Z,3.33
2018-05-07T16:03:38.034Z,4.77
2018-05-07T16:06:03.849Z,5.17
2018-05-07T16:08:29.648Z,2.97
2018-05-07T16:10:55.453Z,8.60
2018-05-07T16:13:21.242Z,3.30
2018-05-07T16:15:47.044Z,3.40
2018-05-07T16:18:13.213Z,4.20
2018-05-07T16:20:39.067Z,4.00
2018-05-07T16:23:04.790Z,23.37
2018-05-07T16:25:30.616Z,9.30
2018-05-07T16:27:56.394Z,43.53
2018-05-07T16:30:22.182Z,25.30
2018-05-07T16:32:47.996Z,10.90
2018-05-07T16:35:13.784Z,15.80
2018-05-07T16:37:39.619Z,19.13
2018-05-07T16:40:05.436Z,7.43
2018-05-07T16:42:31.212Z,4.70
2018-05-07T16:44:57.061Z,7.00
2018-05-07T16:47:22.890Z,6.23
2018-05-07T16:49:48.681Z,24.03
2018-05-07T16:52:14.488Z,9.57
2018-05-07T16:54:40.275Z,8.80
2018-05-07T16:57:06.060Z,9.80
2018-05-07T16:59:31.892Z,5.67
2018-05-07T17:01:57.813Z,3.93
2018-05-07T17:04:23.597Z,6.93
2018-05-07T17:06:49.437Z,6.40
2018-05-07T17:09:15.394Z,5.83
2018-05-07T17:11:41.188Z,7.77
2018-05-07T17:14:07.001Z,17.83
2018-05-07T17:16:32.776Z,11.60
2018-05-07T17:18:58.566Z,15.60
2018-05-07T17:21:24.360Z,8.80
2018-05-07T17:23:50.162Z,26.67
2018-05-07T17:26:16.002Z,12.90
2018-05-07T17:28:41.808Z,13.47
2018-05-07T17:31:09.393Z,13.43
2018-05-07T17:33:36.135Z,5.30
2018-05-07T17:36:04.830Z,3.77
2018-05-07T17:38:32.737Z,5.33
2018-05-07T17:41:00.342Z,4.70
2018-05-07T17:43:29.079Z,6.70
2018-05-07T17:46:07.769Z,7.57
2018-05-07T17:48:46.825Z,9.53
2018-05-07T17:51:13.645Z,29.60
2018-05-07T17:53:39.457Z,19.33
2018-05-07T17:56:06.763Z,6.00
2018-05-07T17:58:32.590Z,19.90
2018-05-07T18:00:59.469Z,23.63
2018-05-07T18:03:26.553Z,15.23
2018-05-07T18:05:53.749Z,19.97
2018-05-07T18:08:19.541Z,10.87
2018-05-07T18:10:48.121Z,7.43
2018-05-07T18:13:15.565Z,11.53
2018-05-07T18:15:43.220Z,6.17
2018-05-07T18:18:09.587Z,11.13
2018-05-07T18:20:35.414Z,8.03
2018-05-07T18:23:01.206Z,13.87
2018-05-07T18:25:26.973Z,12.53
2018-05-07T18:27:52.797Z,15.23
2018-05-07T18:30:18.596Z,14.30
2018-05-07T18:32:44.402Z,16.33
2018-05-07T18:35:10.200Z,15.60
2018-05-07T18:37:36.001Z,12.80
2018-05-07T18:40:01.810Z,13.30
2018-05-07T18:42:27.603Z,8.70
2018-05-07T18:44:53.677Z,10.10
2018-05-07T18:47:19.487Z,11.50
2018-05-07T18:49:45.249Z,10.20
2018-05-07T18:52:11.062Z,10.13
2018-05-07T18:54:36.855Z,15.40
2018-05-07T18:57:02.662Z,16.57
2018-05-07T18:59:28.455Z,10.83
2018-05-07T19:01:54.290Z,11.73
2018-05-07T19:04:20.445Z,13.73
2018-05-07T19:06:46.249Z,11.00
2018-05-07T19:09:12.232Z,16.00
2018-05-07T19:11:38.037Z,11.30
2018-05-07T19:14:03.843Z,10.10
2018-05-07T19:16:29.830Z,14.07
2018-05-07T19:18:55.633Z,21.40
2018-05-07T19:21:21.551Z,13.10
2018-05-07T19:23:47.360Z,13.23
2018-05-07T19:26:13.164Z,10.80
2018-05-07T19:28:38.956Z,12.83
2018-05-07T19:31:04.762Z,12.00
2018-05-07T19:33:30.576Z,11.00
2018-05-07T19:35:56.371Z,11.73
2018-05-07T19:38:22.160Z,11.43
2018-05-07T19:40:47.980Z,10.30
2018-05-07T19:43:13.769Z,12.73
2018-05-07T19:45:39.582Z,8.40
2018-05-07T19:48:05.478Z,12.40
2018-05-07T19:50:31.265Z,12.60
2018-05-07T19:52:57.065Z,8.77
2018-05-07T19:55:22.873Z,10.10
2018-05-07T19:57:48.788Z,14.70
2018-05-07T20:00:14.597Z,9.77
2018-05-07T20:02:40.399Z,5.40
2018-05-07T20:05:06.208Z,9.03
2018-05-07T20:07:32.008Z,8.87
2018-05-07T20:09:57.808Z,11.90
2018-05-07T20:12:23.661Z,10.37
2018-05-07T20:14:49.409Z,8.90
2018-05-07T20:17:15.209Z,6.37
2018-05-07T20:19:41.021Z,9.93
2018-05-07T20:22:06.795Z,6.93
2018-05-07T20:24:32.596Z,8.17
2018-05-07T20:26:58.573Z,9.43
2018-05-07T20:29:24.372Z,8.00
2018-05-07T20:31:50.148Z,10.87
2018-05-07T20:34:15.952Z,6.50
2018-05-07T20:36:41.733Z,4.53
2018-05-07T20:39:07.516Z,6.33
2018-05-07T20:41:33.313Z,9.60
2018-05-07T20:43:59.240Z,7.60
2018-05-07T20:46:25.036Z,7.60
2018-05-07T20:48:50.894Z,7.67
2018-05-07T20:51:16.730Z,8.00
2018-05-07T20:53:43.299Z,7.10
2018-05-07T20:56:09.242Z,9.37
2018-05-07T20:58:35.047Z,5.20
2018-05-07T21:01:00.953Z,7.30
2018-05-07T21:03:26.872Z,11.00
2018-05-07T21:05:52.777Z,7.30
2018-05-07T21:08:18.579Z,7.90
2018-05-07T21:10:44.368Z,5.60
2018-05-07T21:13:10.246Z,13.03
2018-05-07T21:15:35.956Z,8.80
2018-05-07T21:18:01.986Z,8.50
2018-05-07T21:20:27.780Z,13.17
2018-05-07T21:22:53.600Z,12.17
2018-05-07T21:25:19.445Z,9.93
2018-05-07T21:27:45.223Z,6.93
2018-05-07T21:30:11.372Z,6.40
2018-05-07T21:32:37.470Z,8.93
2018-05-07T21:35:03.261Z,15.73
2018-05-07T21:37:29.056Z,8.43
2018-05-07T21:39:54.842Z,5.87
2018-05-07T21:42:20.641Z,7.70
2018-05-07T21:44:46.454Z,8.57
2018-05-07T21:47:12.669Z,8.17
2018-05-07T21:49:38.452Z,9.47
2018-05-07T21:52:04.368Z,6.37
2018-05-07T21:54:30.170Z,4.83
2018-05-07T21:56:55.961Z,6.07
2018-05-07T21:59:21.773Z,7.63
2018-05-07T22:01:47.566Z,5.80
2018-05-07T22:04:13.548Z,5.63
2018-05-07T22:06:39.992Z,10.20
2018-05-07T22:09:06.157Z,8.90
2018-05-07T22:11:31.945Z,6.57
2018-05-07T22:13:58.233Z,7.57
2018-05-07T22:16:24.021Z,8.23
2018-05-07T22:18:51.834Z,6.50
2018-05-07T22:21:18.448Z,7.83
2018-05-07T22:23:44.221Z,5.70
2018-05-07T22:26:10.403Z,6.07
2018-05-07T22:28:36.273Z,9.67
2018-05-07T22:31:02.094Z,12.07
2018-05-07T22:33:27.879Z,7.73
2018-05-07T22:35:53.680Z,7.73
2018-05-07T22:38:19.557Z,6.23
2018-05-07T22:40:45.590Z,8.77
2018-05-07T22:43:11.411Z,6.07
2018-05-07T22:45:37.285Z,6.80
2018-05-07T22:48:03.134Z,7.40
2018-05-07T22:50:28.929Z,13.27
2018-05-07T22:52:54.736Z,8.50
2018-05-07T22:55:20.636Z,8.80
2018-05-07T22:57:46.428Z,10.67
2018-05-07T23:00:13.084Z,6.83
2018-05-07T23:02:38.901Z,7.40
2018-05-07T23:05:04.692Z,7.33
2018-05-07T23:07:30.484Z,8.47
2018-05-07T23:09:56.293Z,6.83
2018-05-07T23:12:22.127Z,9.73
2018-05-07T23:14:47.929Z,7.63
2018-05-07T23:17:13.721Z,7.27
2018-05-07T23:19:39.537Z,11.30
2018-05-07T23:22:05.335Z,9.83
2018-05-07T23:24:31.116Z,6.97
2018-05-07T23:26:56.925Z,7.10
2018-05-07T23:29:22.727Z,9.47
2018-05-07T23:31:48.504Z,22.30
2018-05-07T23:34:14.297Z,115.50
2018-05-07T23:36:40.090Z,165.93
2018-05-07T23:39:05.897Z,85.70
2018-05-07T23:41:31.716Z,92.20
2018-05-07T23:43:57.500Z,21.70
2018-05-07T23:46:23.306Z,17.07
2018-05-07T23:48:49.097Z,25.03
2018-05-07T23:51:14.874Z,34.47
2018-05-07T23:53:40.690Z,32.60
2018-05-07T23:56:06.482Z,22.80
2018-05-07T23:58:32.260Z,54.87
